createdAt,value
2019-01-25T00:02:04.122Z,17.33
2019-01-25T00:04:45.328Z,18.87
2019-01-25T00:10:13.993Z,15.63
2019-01-25T00:12:54.684Z,16.97
2019-01-25T00:15:35.403Z,15.03
2019-01-25T00:18:16.092Z,16.17
2019-01-25T00:20:56.527Z,16.80
2019-01-25T00:23:37.876Z,17.67
2019-01-25T00:26:17.594Z,17.87
2019-01-25T00:28:58.099Z,16.03
2019-01-25T00:31:38.668Z,15.10
2019-01-25T00:34:19.458Z,17.60
2019-01-25T00:36:59.850Z,16.10
2019-01-25T00:42:19.417Z,17.20
2019-01-25T00:44:47.919Z,19.53
2019-01-25T00:47:35.693Z,18.07
2019-01-25T00:50:23.794Z,16.77
2019-01-25T00:53:11.810Z,17.53
2019-01-25T00:55:52.528Z,17.53
2019-01-25T00:58:35.281Z,17.90
2019-01-25T01:01:15.752Z,17.70
2019-01-25T01:03:56.909Z,17.73
2019-01-25T01:06:37.776Z,17.93
2019-01-25T01:09:19.060Z,16.63
2019-01-25T01:11:58.969Z,18.47
2019-01-25T01:14:40.057Z,18.60
2019-01-25T01:17:21.000Z,18.73
2019-01-25T01:20:02.389Z,18.13
2019-01-25T01:22:43.120Z,18.60
2019-01-25T01:25:24.009Z,18.53
2019-01-25T01:28:05.033Z,19.00
2019-01-25T01:30:45.817Z,17.27
2019-01-25T01:33:27.578Z,18.33
2019-01-25T01:36:08.404Z,18.27
2019-01-25T01:38:49.258Z,17.73
2019-01-25T01:41:29.698Z,19.10
2019-01-25T01:44:10.476Z,19.37
2019-01-25T01:46:50.924Z,18.07
2019-01-25T01:49:32.079Z,17.77
2019-01-25T01:52:13.741Z,18.43
2019-01-25T01:54:54.480Z,20.10
2019-01-25T01:57:35.484Z,17.90
2019-01-25T02:00:16.188Z,18.07
2019-01-25T02:02:44.678Z,19.37
2019-01-25T02:05:25.687Z,19.43
2019-01-25T02:08:06.018Z,18.67
2019-01-25T02:10:47.086Z,19.20
2019-01-25T02:13:27.745Z,19.23
2019-01-25T02:16:08.436Z,19.10
2019-01-25T02:18:49.141Z,19.10
2019-01-25T02:21:29.903Z,18.17
2019-01-25T02:24:10.894Z,17.03
2019-01-25T02:26:51.353Z,18.67
2019-01-25T02:29:31.977Z,16.93
2019-01-25T02:32:13.085Z,19.90
2019-01-25T02:34:54.150Z,18.40
2019-01-25T02:37:34.836Z,16.87
2019-01-25T02:40:15.867Z,16.80
2019-01-25T02:42:56.153Z,17.67
2019-01-25T02:45:37.212Z,16.03
2019-01-25T02:48:17.922Z,16.80
2019-01-25T02:50:58.557Z,15.63
2019-01-25T02:53:39.081Z,15.17
2019-01-25T02:56:20.071Z,15.07
2019-01-25T02:59:01.288Z,13.37
2019-01-25T03:01:42.276Z,15.33
2019-01-25T03:04:23.174Z,14.43
2019-01-25T03:07:03.866Z,15.43
2019-01-25T03:09:45.301Z,15.57
2019-01-25T03:12:25.996Z,16.40
2019-01-25T03:15:06.820Z,16.00
2019-01-25T03:17:47.559Z,17.00
2019-01-25T03:20:28.020Z,16.10
2019-01-25T03:23:09.315Z,15.97
2019-01-25T03:25:49.779Z,16.43
2019-01-25T03:28:31.614Z,16.13
2019-01-25T03:31:12.786Z,15.43
2019-01-25T03:33:53.561Z,13.83
2019-01-25T03:36:34.615Z,17.33
2019-01-25T03:39:17.345Z,14.13
2019-01-25T03:41:58.135Z,17.60
2019-01-25T03:44:38.736Z,15.87
2019-01-25T03:47:19.368Z,16.23
2019-01-25T03:50:02.307Z,14.83
2019-01-25T03:52:43.361Z,15.87
2019-01-25T03:55:26.114Z,14.73
2019-01-25T03:58:06.765Z,14.93
2019-01-25T04:00:48.195Z,17.17
2019-01-25T04:03:31.473Z,14.60
2019-01-25T04:06:12.055Z,18.20
2019-01-25T04:08:52.963Z,15.97
2019-01-25T04:11:33.836Z,16.03
2019-01-25T04:14:14.258Z,16.87
2019-01-25T04:16:55.162Z,17.23
2019-01-25T04:19:35.997Z,17.00
2019-01-25T04:22:17.385Z,17.27
2019-01-25T04:24:58.454Z,16.57
2019-01-25T04:27:39.474Z,17.17
2019-01-25T04:30:19.961Z,15.37
2019-01-25T04:33:00.131Z,16.97
2019-01-25T04:35:41.159Z,16.23
2019-01-25T04:38:22.048Z,16.67
2019-01-25T04:41:11.479Z,17.57
2019-01-25T04:43:47.370Z,15.57
2019-01-25T04:46:28.439Z,17.13
2019-01-25T04:49:09.771Z,16.97
2019-01-25T04:51:50.710Z,16.90
2019-01-25T04:54:31.137Z,16.37
2019-01-25T04:57:12.405Z,16.67
2019-01-25T04:59:53.526Z,17.63
2019-01-25T05:02:34.053Z,16.50
2019-01-25T05:05:14.989Z,15.47
2019-01-25T05:07:57.850Z,16.20
2019-01-25T05:10:39.012Z,15.57
2019-01-25T05:13:19.710Z,17.73
2019-01-25T05:16:00.545Z,16.57
2019-01-25T05:18:41.140Z,16.57
2019-01-25T05:21:22.434Z,14.47
2019-01-25T05:24:04.811Z,16.07
2019-01-25T05:26:45.840Z,16.07
2019-01-25T05:29:26.708Z,16.10
2019-01-25T05:32:07.191Z,16.90
2019-01-25T05:34:48.030Z,18.37
2019-01-25T05:37:31.169Z,16.20
2019-01-25T05:40:13.885Z,17.67
2019-01-25T05:42:54.903Z,16.60
2019-01-25T05:45:35.695Z,16.47
2019-01-25T05:48:16.265Z,16.50
2019-01-25T05:50:57.668Z,17.70
2019-01-25T05:53:38.409Z,16.50
2019-01-25T05:56:19.192Z,17.70
2019-01-25T05:58:59.605Z,17.73
2019-01-25T06:01:42.490Z,16.77
2019-01-25T06:04:23.392Z,19.13
2019-01-25T06:07:04.151Z,19.23
2019-01-25T06:09:44.749Z,18.67
2019-01-25T06:12:28.259Z,16.13
2019-01-25T06:18:13.526Z,18.43
2019-01-25T06:20:53.965Z,16.47
2019-01-25T06:23:34.755Z,18.70
2019-01-25T06:29:19.229Z,17.10
2019-01-25T06:31:47.694Z,18.80
2019-01-25T06:34:35.693Z,19.27
2019-01-25T06:37:16.493Z,17.63
2019-01-25T06:39:57.410Z,18.97
2019-01-25T06:42:38.085Z,19.90
2019-01-25T06:45:18.917Z,17.57
2019-01-25T06:47:59.475Z,18.63
2019-01-25T06:50:40.248Z,18.77
2019-01-25T06:53:20.516Z,18.07
2019-01-25T06:56:01.209Z,18.67
2019-01-25T06:58:44.030Z,18.63
2019-01-25T07:01:26.753Z,17.13
2019-01-25T07:04:07.469Z,18.83
2019-01-25T07:06:49.987Z,18.03
2019-01-25T07:09:31.116Z,19.20
2019-01-25T07:11:59.563Z,20.60
2019-01-25T07:14:47.376Z,19.67
2019-01-25T07:20:22.957Z,20.33
2019-01-25T07:23:03.726Z,19.47
2019-01-25T07:25:47.801Z,20.37
2019-01-25T07:28:16.399Z,20.33
2019-01-25T07:31:04.474Z,19.97
2019-01-25T07:33:33.148Z,19.73
2019-01-25T07:36:21.251Z,20.93
2019-01-25T07:39:01.881Z,19.77
2019-01-25T07:41:42.682Z,21.27
2019-01-25T07:44:23.600Z,19.93
2019-01-25T07:47:04.352Z,21.77
2019-01-25T07:49:45.634Z,20.43
2019-01-25T07:52:26.870Z,19.40
2019-01-25T07:55:09.118Z,22.77
2019-01-25T07:57:49.624Z,47.40
2019-01-25T08:00:30.326Z,119.37
2019-01-25T08:03:12.313Z,79.60
2019-01-25T08:05:52.666Z,51.53
2019-01-25T08:08:33.499Z,62.03
2019-01-25T08:11:15.117Z,39.97
2019-01-25T08:13:57.078Z,44.57
2019-01-25T08:16:38.568Z,36.30
2019-01-25T08:19:26.342Z,29.17
2019-01-25T08:24:48.528Z,23.97
2019-01-25T08:27:36.069Z,23.37
2019-01-25T08:30:16.797Z,22.03
2019-01-25T08:32:57.873Z,22.43
2019-01-25T08:35:38.708Z,20.47
2019-01-25T08:38:19.475Z,21.43
2019-01-25T08:41:28.143Z,18.77
2019-01-25T08:47:46.260Z,20.03
2019-01-25T08:50:27.531Z,21.03
2019-01-25T08:56:04.708Z,20.40
2019-01-25T09:10:24.356Z,18.67
2019-01-25T09:27:16.305Z,22.13
2019-01-25T09:29:57.549Z,30.40
2019-01-25T09:35:27.211Z,19.30
2019-01-25T09:38:16.383Z,22.00
2019-01-25T09:40:45.338Z,19.27
2019-01-25T09:43:27.968Z,21.40
2019-01-25T10:00:38.700Z,18.87
2019-01-25T10:03:19.615Z,20.10
2019-01-25T10:06:00.376Z,17.17
2019-01-25T10:14:43.817Z,17.17
2019-01-25T10:20:33.539Z,16.83
2019-01-25T10:23:14.995Z,17.57
2019-01-25T10:34:32.545Z,17.37
2019-01-25T10:56:08.645Z,14.30
2019-01-25T11:37:09.599Z,15.23
2019-01-25T11:39:54.617Z,14.60
2019-01-25T11:42:34.916Z,16.50
2019-01-25T11:48:03.284Z,14.77
2019-01-25T11:53:42.282Z,14.70
2019-01-25T11:56:22.009Z,13.27
2019-01-25T11:59:03.093Z,13.90
2019-01-25T12:01:44.354Z,14.37
2019-01-25T12:07:20.687Z,15.10
2019-01-25T12:10:01.472Z,14.47
2019-01-25T12:12:46.688Z,12.97
2019-01-25T12:24:45.265Z,12.93
2019-01-25T12:27:27.527Z,13.33
2019-01-25T12:33:22.572Z,14.80
2019-01-25T12:36:10.549Z,12.90
2019-01-25T12:42:26.094Z,13.37
2019-01-25T12:44:54.574Z,16.47
2019-01-25T12:47:23.126Z,22.37
2019-01-25T12:49:51.680Z,13.50
2019-01-25T12:52:39.470Z,14.17
2019-01-25T12:55:19.925Z,13.43
2019-01-25T12:58:01.148Z,13.07
2019-01-25T13:00:42.580Z,15.87
2019-01-25T13:03:24.113Z,15.27
2019-01-25T13:05:52.623Z,17.87
2019-01-25T13:08:40.443Z,15.30
2019-01-25T13:11:28.250Z,13.60
2019-01-25T13:13:56.717Z,11.60
2019-01-25T13:16:25.239Z,12.53
2019-01-25T13:22:15.634Z,12.13
2019-01-25T13:27:49.437Z,8.00
2019-01-25T13:30:37.243Z,7.83
2019-01-25T13:33:25.422Z,8.13
2019-01-25T13:36:13.240Z,8.20
2019-01-25T13:39:01.025Z,7.97
2019-01-25T13:41:48.822Z,8.20
2019-01-25T13:44:36.829Z,8.90
2019-01-25T13:47:18.006Z,7.90
2019-01-25T13:49:58.722Z,10.60
2019-01-25T13:52:39.847Z,9.37
2019-01-25T13:55:20.733Z,8.17
2019-01-25T13:58:01.881Z,8.30
2019-01-25T14:00:49.922Z,8.43
2019-01-25T14:03:30.883Z,8.63
2019-01-25T14:09:11.121Z,8.93
2019-01-25T14:11:51.853Z,6.80
2019-01-25T14:14:32.821Z,7.57
2019-01-25T14:17:13.959Z,7.03
2019-01-25T14:25:42.056Z,7.60
2019-01-25T14:31:12.883Z,6.60
2019-01-25T14:33:56.042Z,6.77
2019-01-25T14:39:24.629Z,6.07
2019-01-25T14:42:05.232Z,6.07
2019-01-25T14:44:45.958Z,7.13
2019-01-25T14:53:23.942Z,6.67
2019-01-25T14:56:04.797Z,7.17
2019-01-25T14:58:45.670Z,7.43
2019-01-25T15:01:26.262Z,7.33
2019-01-25T15:03:54.940Z,8.00
2019-01-25T15:06:42.932Z,7.67
2019-01-25T15:09:11.523Z,7.53
2019-01-25T15:11:59.728Z,7.63
2019-01-25T15:17:45.943Z,7.13
2019-01-25T15:20:26.929Z,7.77
2019-01-25T15:23:09.054Z,8.03
2019-01-25T15:25:49.351Z,6.87
2019-01-25T15:31:16.282Z,6.10
2019-01-25T15:33:56.911Z,7.27
2019-01-25T15:36:38.934Z,7.53
2019-01-25T15:39:19.609Z,6.20
2019-01-25T15:44:56.771Z,6.33
2019-01-25T15:47:37.333Z,6.07
2019-01-25T15:50:45.821Z,6.00
2019-01-25T15:53:33.630Z,5.73
2019-01-25T15:58:58.697Z,11.60
2019-01-25T16:01:39.153Z,21.03
2019-01-25T16:04:19.989Z,17.63
2019-01-25T16:07:00.554Z,30.50
2019-01-25T16:09:41.947Z,19.57
2019-01-25T16:12:23.070Z,12.87
2019-01-25T16:15:05.357Z,12.57
2019-01-25T16:17:46.603Z,11.70
2019-01-25T16:26:04.708Z,11.87
2019-01-25T16:28:46.086Z,13.23
2019-01-25T16:31:29.379Z,9.90
2019-01-25T16:34:10.222Z,11.33
2019-01-25T16:36:51.062Z,11.57
2019-01-25T16:39:32.250Z,12.57
2019-01-25T16:42:13.147Z,11.13
2019-01-25T16:44:41.601Z,11.17
2019-01-25T16:47:48.709Z,9.80
2019-01-25T16:50:37.031Z,11.30
2019-01-25T16:53:19.846Z,12.77
2019-01-25T16:56:00.484Z,13.93
2019-01-25T16:58:42.842Z,11.90
2019-01-25T17:01:23.262Z,11.73
2019-01-25T17:04:05.307Z,11.00
2019-01-25T17:06:46.968Z,10.90
2019-01-25T17:09:27.375Z,11.27
2019-01-25T17:12:09.647Z,10.70
2019-01-25T17:14:59.126Z,12.10
2019-01-25T17:20:28.853Z,10.97
2019-01-25T17:23:09.582Z,11.00
2019-01-25T17:25:50.359Z,10.63
2019-01-25T17:28:31.275Z,10.90
2019-01-25T17:31:12.499Z,11.30
2019-01-25T17:33:53.464Z,11.53
2019-01-25T17:36:34.572Z,11.63
2019-01-25T17:39:15.989Z,9.93
2019-01-25T17:41:57.021Z,10.07
2019-01-25T17:44:41.427Z,11.67
2019-01-25T17:47:20.776Z,11.23
2019-01-25T17:50:01.662Z,9.33
2019-01-25T17:52:42.343Z,16.57
2019-01-25T17:55:23.149Z,11.90
2019-01-25T17:58:08.188Z,10.47
2019-01-25T18:00:47.602Z,11.00
2019-01-25T18:03:30.209Z,10.67
2019-01-25T18:06:12.264Z,9.50
2019-01-25T18:08:54.198Z,9.17
2019-01-25T18:11:35.458Z,9.67
2019-01-25T18:14:16.897Z,9.27
2019-01-25T18:16:45.439Z,9.03
2019-01-25T18:19:33.284Z,8.80
2019-01-25T18:22:21.349Z,7.43
2019-01-25T18:25:02.172Z,10.60
2019-01-25T18:27:42.879Z,8.27
2019-01-25T18:30:25.062Z,10.57
2019-01-25T18:33:05.823Z,10.57
2019-01-25T18:35:46.462Z,9.93
2019-01-25T18:38:28.569Z,9.67
2019-01-25T18:41:09.231Z,10.23
2019-01-25T18:43:50.029Z,9.63
2019-01-25T18:46:30.932Z,9.43
2019-01-25T18:49:13.589Z,9.57
2019-01-25T18:51:55.350Z,11.00
2019-01-25T18:54:36.063Z,14.97
2019-01-25T18:57:18.096Z,9.87
2019-01-25T18:59:59.271Z,10.43
2019-01-25T19:02:28.158Z,9.60
2019-01-25T19:05:16.088Z,11.67
2019-01-25T19:07:56.058Z,8.77
2019-01-25T19:10:37.237Z,9.77
2019-01-25T19:13:05.793Z,9.30
2019-01-25T19:16:07.399Z,9.10
2019-01-25T19:18:36.005Z,9.13
2019-01-25T19:21:17.283Z,8.43
2019-01-25T19:23:58.219Z,8.03
2019-01-25T19:26:27.079Z,7.97
2019-01-25T19:32:15.126Z,7.40
2019-01-25T19:34:55.621Z,8.33
2019-01-25T19:37:37.247Z,6.07
2019-01-25T19:40:17.845Z,6.57
2019-01-25T19:42:58.577Z,8.00
2019-01-25T19:45:39.520Z,6.93
2019-01-25T19:48:20.262Z,7.77
2019-01-25T19:51:01.183Z,7.93
2019-01-25T19:53:41.963Z,8.17
2019-01-25T19:56:22.680Z,12.03
2019-01-25T19:59:03.883Z,8.73
2019-01-25T20:01:44.545Z,8.10
2019-01-25T20:04:26.762Z,8.80
2019-01-25T20:07:06.907Z,9.70
2019-01-25T20:09:47.620Z,8.20
2019-01-25T20:12:28.013Z,8.87
2019-01-25T20:15:10.084Z,7.37
2019-01-25T20:17:50.947Z,7.57
2019-01-25T20:20:31.645Z,7.20
2019-01-25T20:23:12.735Z,7.90
2019-01-25T20:25:53.794Z,7.47
2019-01-25T20:31:21.148Z,7.30
2019-01-25T20:36:43.591Z,6.87
2019-01-25T20:39:25.685Z,6.87
2019-01-25T20:42:07.774Z,7.27
2019-01-25T20:44:48.243Z,6.80
2019-01-25T20:47:30.699Z,7.10
2019-01-25T20:50:11.864Z,6.10
2019-01-25T20:52:52.599Z,7.17
2019-01-25T20:55:33.406Z,6.27
2019-01-25T20:58:14.759Z,6.70
2019-01-25T21:00:55.499Z,6.03
2019-01-25T21:06:23.346Z,6.63
2019-01-25T21:09:05.518Z,6.60
2019-01-25T21:11:46.410Z,5.87
2019-01-25T21:14:14.866Z,6.40
2019-01-25T21:17:02.792Z,6.40
2019-01-25T21:19:43.685Z,5.37
2019-01-25T21:22:13.218Z,6.60
2019-01-25T21:28:14.802Z,5.53
2019-01-25T21:30:56.804Z,4.40
2019-01-25T21:33:38.279Z,6.50
2019-01-25T21:36:19.234Z,6.20
2019-01-25T21:41:55.048Z,5.97
2019-01-25T21:44:37.502Z,5.30
2019-01-25T21:47:19.376Z,5.97
2019-01-25T21:50:01.023Z,5.20
2019-01-25T21:52:41.994Z,5.43
2019-01-25T21:58:20.292Z,5.63
2019-01-25T22:01:00.886Z,5.30
2019-01-25T22:06:28.129Z,5.93
2019-01-25T22:09:09.286Z,5.40
2019-01-25T22:14:45.332Z,5.97
2019-01-25T22:17:33.920Z,7.00
2019-01-25T22:20:14.792Z,6.07
2019-01-25T22:22:56.080Z,5.43
2019-01-25T22:25:38.230Z,5.60
2019-01-25T22:28:19.567Z,4.97
2019-01-25T22:30:48.047Z,5.93
2019-01-25T22:39:50.728Z,5.83
2019-01-25T22:42:31.643Z,5.17
2019-01-25T22:45:12.354Z,6.93
2019-01-25T22:47:54.293Z,5.97
2019-01-25T22:53:27.865Z,5.47
2019-01-25T22:56:09.178Z,6.77
2019-01-25T22:58:51.046Z,6.40
2019-01-25T23:01:32.625Z,7.10
2019-01-25T23:04:39.785Z,7.03
2019-01-25T23:07:27.614Z,5.30
2019-01-25T23:10:10.342Z,5.97
2019-01-25T23:12:51.173Z,6.00
2019-01-25T23:15:33.397Z,4.30
2019-01-25T23:18:14.576Z,6.07
2019-01-25T23:20:55.465Z,6.23
2019-01-25T23:23:36.486Z,6.07
2019-01-25T23:26:17.191Z,7.30
2019-01-25T23:31:44.863Z,6.97
2019-01-25T23:34:25.340Z,5.00
2019-01-25T23:37:07.920Z,6.13
2019-01-25T23:39:49.814Z,5.97
2019-01-25T23:42:30.811Z,5.93
2019-01-25T23:45:11.729Z,5.20
2019-01-25T23:47:53.057Z,6.30
2019-01-25T23:50:34.193Z,5.10
2019-01-25T23:53:14.963Z,5.57
2019-01-25T23:58:34.960Z,6.63
